sensor_id;sensor_type;location;lat;lon;timestamp;P1;durP1;ratioP1;P2;durP2;ratioP2
48550;SDS011;34397;51.176;6.738;2023-09-30T00:01:30;9.43;;;3.40;;
48550;SDS011;34397;51.176;6.738;2023-09-30T00:04:03;7.68;;;3.35;;
48550;SDS011;34397;51.176;6.738;2023-09-30T00:06:38;8.13;;;3.38;;
48550;SDS011;34397;51.176;6.738;2023-09-30T00:09:10;6.32;;;2.97;;
48550;SDS011;34397;51.176;6.738;2023-09-30T00:11:43;9.70;;;3.30;;
48550;SDS011;34397;51.176;6.738;2023-09-30T00:14:15;9.18;;;3.25;;
48550;SDS011;34397;51.176;6.738;2023-09-30T00:16:48;6.28;;;2.92;;
48550;SDS011;34397;51.176;6.738;2023-09-30T00:19:20;11.30;;;3.47;;
48550;SDS011;34397;51.176;6.738;2023-09-30T00:24:26;7.57;;;3.05;;
48550;SDS011;34397;51.176;6.738;2023-09-30T00:26:58;7.05;;;3.10;;
48550;SDS011;34397;51.176;6.738;2023-09-30T00:29:30;8.00;;;2.88;;
48550;SDS011;34397;51.176;6.738;2023-09-30T00:32:01;6.78;;;3.22;;
48550;SDS011;34397;51.176;6.738;2023-09-30T00:34:34;8.57;;;3.30;;
48550;SDS011;34397;51.176;6.738;2023-09-30T00:37:07;9.27;;;3.33;;
48550;SDS011;34397;51.176;6.738;2023-09-30T00:39:39;10.13;;;3.25;;
48550;SDS011;34397;51.176;6.738;2023-09-30T00:42:11;8.88;;;3.13;;
48550;SDS011;34397;51.176;6.738;2023-09-30T00:44:43;7.85;;;3.40;;
48550;SDS011;34397;51.176;6.738;2023-09-30T00:47:15;7.15;;;2.75;;
48550;SDS011;34397;51.176;6.738;2023-09-30T00:49:47;8.82;;;2.88;;
48550;SDS011;34397;51.176;6.738;2023-09-30T00:52:22;7.40;;;2.90;;
48550;SDS011;34397;51.176;6.738;2023-09-30T00:54:54;8.05;;;2.78;;
48550;SDS011;34397;51.176;6.738;2023-09-30T00:57:26;6.47;;;2.65;;
48550;SDS011;34397;51.176;6.738;2023-09-30T00:59:58;8.90;;;2.97;;
48550;SDS011;34397;51.176;6.738;2023-09-30T01:02:31;7.90;;;2.83;;
48550;SDS011;34397;51.176;6.738;2023-09-30T01:05:04;6.45;;;2.45;;
48550;SDS011;34397;51.176;6.738;2023-09-30T01:07:38;5.85;;;2.80;;
48550;SDS011;34397;51.176;6.738;2023-09-30T01:10:10;6.90;;;2.85;;
48550;SDS011;34397;51.176;6.738;2023-09-30T01:12:42;9.20;;;3.30;;
48550;SDS011;34397;51.176;6.738;2023-09-30T01:15:14;7.43;;;2.97;;
48550;SDS011;34397;51.176;6.738;2023-09-30T01:17:46;9.13;;;3.20;;
48550;SDS011;34397;51.176;6.738;2023-09-30T01:20:18;6.35;;;2.75;;
48550;SDS011;34397;51.176;6.738;2023-09-30T01:22:53;7.05;;;3.00;;
48550;SDS011;34397;51.176;6.738;2023-09-30T01:25:27;9.10;;;3.28;;
48550;SDS011;34397;51.176;6.738;2023-09-30T01:27:59;6.45;;;2.67;;
48550;SDS011;34397;51.176;6.738;2023-09-30T01:30:36;6.15;;;2.58;;
48550;SDS011;34397;51.176;6.738;2023-09-30T01:33:08;9.07;;;2.85;;
48550;SDS011;34397;51.176;6.738;2023-09-30T01:35:40;11.65;;;2.85;;
48550;SDS011;34397;51.176;6.738;2023-09-30T01:38:13;7.53;;;2.92;;
48550;SDS011;34397;51.176;6.738;2023-09-30T01:40:45;9.27;;;2.88;;
48550;SDS011;34397;51.176;6.738;2023-09-30T01:45:49;8.07;;;2.63;;
48550;SDS011;34397;51.176;6.738;2023-09-30T01:48:21;9.05;;;3.10;;
48550;SDS011;34397;51.176;6.738;2023-09-30T01:50:53;5.75;;;2.63;;
48550;SDS011;34397;51.176;6.738;2023-09-30T01:53:26;10.90;;;2.90;;
48550;SDS011;34397;51.176;6.738;2023-09-30T01:55:58;6.80;;;3.33;;
48550;SDS011;34397;51.176;6.738;2023-09-30T01:58:30;5.70;;;2.97;;
48550;SDS011;34397;51.176;6.738;2023-09-30T02:01:02;9.10;;;2.63;;
48550;SDS011;34397;51.176;6.738;2023-09-30T02:03:34;5.97;;;2.50;;
48550;SDS011;34397;51.176;6.738;2023-09-30T02:06:07;5.60;;;2.72;;
48550;SDS011;34397;51.176;6.738;2023-09-30T02:08:41;6.00;;;2.70;;
48550;SDS011;34397;51.176;6.738;2023-09-30T02:11:14;7.07;;;3.00;;
48550;SDS011;34397;51.176;6.738;2023-09-30T02:13:46;6.43;;;2.75;;
48550;SDS011;34397;51.176;6.738;2023-09-30T02:16:18;6.03;;;2.70;;
48550;SDS011;34397;51.176;6.738;2023-09-30T02:18:50;8.18;;;3.13;;
48550;SDS011;34397;51.176;6.738;2023-09-30T02:21:22;6.55;;;2.75;;
48550;SDS011;34397;51.176;6.738;2023-09-30T02:23:55;6.93;;;2.58;;
48550;SDS011;34397;51.176;6.738;2023-09-30T02:26:27;6.78;;;2.40;;
48550;SDS011;34397;51.176;6.738;2023-09-30T02:28:59;7.30;;;2.63;;
48550;SDS011;34397;51.176;6.738;2023-09-30T02:31:31;7.70;;;2.75;;
48550;SDS011;34397;51.176;6.738;2023-09-30T02:36:35;7.72;;;2.60;;
48550;SDS011;34397;51.176;6.738;2023-09-30T02:39:09;8.05;;;2.70;;
48550;SDS011;34397;51.176;6.738;2023-09-30T02:41:41;4.85;;;2.20;;
48550;SDS011;34397;51.176;6.738;2023-09-30T02:44:13;5.60;;;2.63;;
48550;SDS011;34397;51.176;6.738;2023-09-30T02:46:44;4.25;;;2.20;;
48550;SDS011;34397;51.176;6.738;2023-09-30T02:49:17;8.35;;;2.70;;
48550;SDS011;34397;51.176;6.738;2023-09-30T02:51:49;5.68;;;2.42;;
48550;SDS011;34397;51.176;6.738;2023-09-30T02:54:22;4.90;;;2.22;;
48550;SDS011;34397;51.176;6.738;2023-09-30T02:56:54;6.78;;;2.75;;
48550;SDS011;34397;51.176;6.738;2023-09-30T02:59:26;10.05;;;2.80;;
48550;SDS011;34397;51.176;6.738;2023-09-30T03:01:57;5.60;;;2.58;;
48550;SDS011;34397;51.176;6.738;2023-09-30T03:04:29;7.15;;;2.88;;
48550;SDS011;34397;51.176;6.738;2023-09-30T03:07:02;6.30;;;2.80;;
48550;SDS011;34397;51.176;6.738;2023-09-30T03:09:36;5.50;;;2.67;;
48550;SDS011;34397;51.176;6.738;2023-09-30T03:12:08;7.15;;;2.70;;
48550;SDS011;34397;51.176;6.738;2023-09-30T03:14:40;6.63;;;3.03;;
48550;SDS011;34397;51.176;6.738;2023-09-30T03:17:12;5.95;;;2.70;;
48550;SDS011;34397;51.176;6.738;2023-09-30T03:19:44;6.60;;;2.95;;
48550;SDS011;34397;51.176;6.738;2023-09-30T03:22:16;6.97;;;2.58;;
48550;SDS011;34397;51.176;6.738;2023-09-30T03:24:50;4.85;;;2.30;;
48550;SDS011;34397;51.176;6.738;2023-09-30T03:27:24;8.40;;;2.85;;
48550;SDS011;34397;51.176;6.738;2023-09-30T03:29:56;7.45;;;3.08;;
48550;SDS011;34397;51.176;6.738;2023-09-30T03:32:27;5.97;;;2.95;;
48550;SDS011;34397;51.176;6.738;2023-09-30T03:37:32;7.72;;;2.92;;
48550;SDS011;34397;51.176;6.738;2023-09-30T03:40:06;8.73;;;3.10;;
48550;SDS011;34397;51.176;6.738;2023-09-30T03:42:44;4.80;;;2.45;;
48550;SDS011;34397;51.176;6.738;2023-09-30T03:45:19;9.10;;;2.70;;
48550;SDS011;34397;51.176;6.738;2023-09-30T03:47:51;9.85;;;3.00;;
48550;SDS011;34397;51.176;6.738;2023-09-30T03:50:23;6.82;;;2.78;;
48550;SDS011;34397;51.176;6.738;2023-09-30T03:53:00;6.35;;;2.50;;
48550;SDS011;34397;51.176;6.738;2023-09-30T03:55:34;7.68;;;2.88;;
48550;SDS011;34397;51.176;6.738;2023-09-30T03:58:07;6.07;;;2.70;;
48550;SDS011;34397;51.176;6.738;2023-09-30T04:00:38;7.43;;;2.90;;
48550;SDS011;34397;51.176;6.738;2023-09-30T04:03:10;11.43;;;2.83;;
48550;SDS011;34397;51.176;6.738;2023-09-30T04:05:42;7.75;;;3.22;;
48550;SDS011;34397;51.176;6.738;2023-09-30T04:08:14;6.38;;;2.60;;
48550;SDS011;34397;51.176;6.738;2023-09-30T04:10:48;7.05;;;2.63;;
48550;SDS011;34397;51.176;6.738;2023-09-30T04:13:20;7.30;;;2.60;;
48550;SDS011;34397;51.176;6.738;2023-09-30T04:15:52;6.55;;;2.70;;
48550;SDS011;34397;51.176;6.738;2023-09-30T04:18:24;5.35;;;2.72;;
48550;SDS011;34397;51.176;6.738;2023-09-30T04:20:56;6.07;;;3.10;;
48550;SDS011;34397;51.176;6.738;2023-09-30T04:23:28;6.88;;;2.72;;
48550;SDS011;34397;51.176;6.738;2023-09-30T04:26:01;9.07;;;2.63;;
48550;SDS011;34397;51.176;6.738;2023-09-30T04:28:35;6.05;;;2.60;;
48550;SDS011;34397;51.176;6.738;2023-09-30T04:31:07;11.77;;;3.05;;
48550;SDS011;34397;51.176;6.738;2023-09-30T04:33:39;7.57;;;2.72;;
48550;SDS011;34397;51.176;6.738;2023-09-30T04:36:11;11.45;;;3.08;;
48550;SDS011;34397;51.176;6.738;2023-09-30T04:38:43;5.80;;;2.88;;
48550;SDS011;34397;51.176;6.738;2023-09-30T04:41:17;5.40;;;2.67;;
48550;SDS011;34397;51.176;6.738;2023-09-30T04:43:49;5.90;;;2.55;;
48550;SDS011;34397;51.176;6.738;2023-09-30T04:46:22;6.47;;;2.90;;
48550;SDS011;34397;51.176;6.738;2023-09-30T04:48:54;5.78;;;2.33;;
48550;SDS011;34397;51.176;6.738;2023-09-30T04:51:26;7.10;;;2.50;;
48550;SDS011;34397;51.176;6.738;2023-09-30T04:53:58;6.63;;;2.55;;
48550;SDS011;34397;51.176;6.738;2023-09-30T04:56:33;5.25;;;2.03;;
48550;SDS011;34397;51.176;6.738;2023-09-30T04:59:05;6.70;;;2.17;;
48550;SDS011;34397;51.176;6.738;2023-09-30T05:01:37;4.47;;;2.05;;
48550;SDS011;34397;51.176;6.738;2023-09-30T05:04:09;6.53;;;2.85;;
48550;SDS011;34397;51.176;6.738;2023-09-30T05:06:40;6.35;;;2.75;;
48550;SDS011;34397;51.176;6.738;2023-09-30T05:09:12;6.47;;;2.47;;
48550;SDS011;34397;51.176;6.738;2023-09-30T05:11:45;6.25;;;2.60;;
48550;SDS011;34397;51.176;6.738;2023-09-30T05:14:17;5.75;;;2.58;;
48550;SDS011;34397;51.176;6.738;2023-09-30T05:16:51;4.38;;;2.33;;
48550;SDS011;34397;51.176;6.738;2023-09-30T05:19:23;5.18;;;2.40;;
48550;SDS011;34397;51.176;6.738;2023-09-30T05:21:55;7.70;;;2.80;;
48550;SDS011;34397;51.176;6.738;2023-09-30T05:24:26;4.72;;;2.50;;
48550;SDS011;34397;51.176;6.738;2023-09-30T05:27:00;6.18;;;2.45;;
48550;SDS011;34397;51.176;6.738;2023-09-30T05:29:32;6.82;;;2.47;;
48550;SDS011;34397;51.176;6.738;2023-09-30T05:32:04;4.03;;;2.50;;
48550;SDS011;34397;51.176;6.738;2023-09-30T05:37:09;4.10;;;2.42;;
48550;SDS011;34397;51.176;6.738;2023-09-30T05:39:42;5.38;;;2.20;;
48550;SDS011;34397;51.176;6.738;2023-09-30T05:42:15;9.18;;;2.90;;
48550;SDS011;34397;51.176;6.738;2023-09-30T05:44:48;5.38;;;2.60;;
48550;SDS011;34397;51.176;6.738;2023-09-30T05:47:21;5.93;;;2.70;;
48550;SDS011;34397;51.176;6.738;2023-09-30T05:49:53;5.45;;;2.75;;
48550;SDS011;34397;51.176;6.738;2023-09-30T05:52:25;5.40;;;2.85;;
48550;SDS011;34397;51.176;6.738;2023-09-30T05:54:56;7.03;;;2.60;;
48550;SDS011;34397;51.176;6.738;2023-09-30T05:57:31;5.78;;;2.88;;
48550;SDS011;34397;51.176;6.738;2023-09-30T06:00:04;7.85;;;3.13;;
48550;SDS011;34397;51.176;6.738;2023-09-30T06:02:51;7.93;;;3.03;;
48550;SDS011;34397;51.176;6.738;2023-09-30T06:05:23;8.50;;;3.42;;
48550;SDS011;34397;51.176;6.738;2023-09-30T06:07:56;6.65;;;3.20;;
48550;SDS011;34397;51.176;6.738;2023-09-30T06:10:28;6.72;;;3.13;;
48550;SDS011;34397;51.176;6.738;2023-09-30T06:13:01;7.80;;;3.63;;
48550;SDS011;34397;51.176;6.738;2023-09-30T06:15:34;8.00;;;3.50;;
48550;SDS011;34397;51.176;6.738;2023-09-30T06:18:10;6.88;;;3.10;;
48550;SDS011;34397;51.176;6.738;2023-09-30T06:20:43;10.50;;;3.85;;
48550;SDS011;34397;51.176;6.738;2023-09-30T06:23:15;9.65;;;3.88;;
48550;SDS011;34397;51.176;6.738;2023-09-30T06:25:47;10.88;;;4.72;;
48550;SDS011;34397;51.176;6.738;2023-09-30T06:28:20;13.00;;;4.85;;
48550;SDS011;34397;51.176;6.738;2023-09-30T06:30:56;13.35;;;4.45;;
48550;SDS011;34397;51.176;6.738;2023-09-30T06:33:28;9.95;;;5.10;;
48550;SDS011;34397;51.176;6.738;2023-09-30T06:36:00;12.00;;;5.43;;
48550;SDS011;34397;51.176;6.738;2023-09-30T06:38:32;16.40;;;6.00;;
48550;SDS011;34397;51.176;6.738;2023-09-30T06:41:04;17.35;;;5.57;;
48550;SDS011;34397;51.176;6.738;2023-09-30T06:43:37;18.67;;;5.53;;
48550;SDS011;34397;51.176;6.738;2023-09-30T06:46:09;10.70;;;6.00;;
48550;SDS011;34397;51.176;6.738;2023-09-30T06:48:43;65.75;;;8.18;;
48550;SDS011;34397;51.176;6.738;2023-09-30T06:51:14;33.28;;;7.97;;
48550;SDS011;34397;51.176;6.738;2023-09-30T06:56:19;26.00;;;7.10;;
48550;SDS011;34397;51.176;6.738;2023-09-30T06:58:52;11.00;;;6.47;;
48550;SDS011;34397;51.176;6.738;2023-09-30T07:01:24;12.48;;;6.30;;
48550;SDS011;34397;51.176;6.738;2023-09-30T07:03:56;11.00;;;6.93;;
48550;SDS011;34397;51.176;6.738;2023-09-30T07:06:27;14.50;;;7.03;;
48550;SDS011;34397;51.176;6.738;2023-09-30T07:08:59;13.13;;;7.35;;
48550;SDS011;34397;51.176;6.738;2023-09-30T07:11:31;13.57;;;6.68;;
48550;SDS011;34397;51.176;6.738;2023-09-30T07:14:04;16.35;;;6.13;;
48550;SDS011;34397;51.176;6.738;2023-09-30T07:16:36;13.52;;;6.32;;
48550;SDS011;34397;51.176;6.738;2023-09-30T07:19:10;10.80;;;5.63;;
48550;SDS011;34397;51.176;6.738;2023-09-30T07:21:41;13.00;;;6.35;;
48550;SDS011;34397;51.176;6.738;2023-09-30T07:24:13;11.52;;;6.20;;
48550;SDS011;34397;51.176;6.738;2023-09-30T07:26:45;14.30;;;5.80;;
48550;SDS011;34397;51.176;6.738;2023-09-30T07:29:19;10.20;;;5.97;;
48550;SDS011;34397;51.176;6.738;2023-09-30T07:31:51;10.75;;;5.32;;
48550;SDS011;34397;51.176;6.738;2023-09-30T07:34:23;10.40;;;5.38;;
48550;SDS011;34397;51.176;6.738;2023-09-30T07:36:55;8.90;;;5.28;;
48550;SDS011;34397;51.176;6.738;2023-09-30T07:39:26;9.55;;;5.40;;
48550;SDS011;34397;51.176;6.738;2023-09-30T07:42:00;13.00;;;5.53;;
48550;SDS011;34397;51.176;6.738;2023-09-30T07:44:33;9.95;;;5.07;;
48550;SDS011;34397;51.176;6.738;2023-09-30T07:47:06;12.20;;;6.15;;
48550;SDS011;34397;51.176;6.738;2023-09-30T07:49:38;11.60;;;5.60;;
48550;SDS011;34397;51.176;6.738;2023-09-30T07:52:10;9.68;;;5.50;;
48550;SDS011;34397;51.176;6.738;2023-09-30T07:54:42;11.02;;;5.72;;
48550;SDS011;34397;51.176;6.738;2023-09-30T07:57:14;16.45;;;6.88;;
48550;SDS011;34397;51.176;6.738;2023-09-30T07:59:48;11.05;;;5.90;;
48550;SDS011;34397;51.176;6.738;2023-09-30T08:02:20;12.80;;;6.25;;
48550;SDS011;34397;51.176;6.738;2023-09-30T08:04:52;11.95;;;5.80;;
48550;SDS011;34397;51.176;6.738;2023-09-30T08:07:24;13.48;;;6.30;;
48550;SDS011;34397;51.176;6.738;2023-09-30T08:09:56;9.57;;;6.07;;
48550;SDS011;34397;51.176;6.738;2023-09-30T08:12:28;14.10;;;7.20;;
48550;SDS011;34397;51.176;6.738;2023-09-30T08:15:01;9.52;;;6.13;;
48550;SDS011;34397;51.176;6.738;2023-09-30T08:17:35;22.27;;;7.97;;
48550;SDS011;34397;51.176;6.738;2023-09-30T08:20:07;12.27;;;7.25;;
48550;SDS011;34397;51.176;6.738;2023-09-30T08:22:41;12.15;;;7.20;;
48550;SDS011;34397;51.176;6.738;2023-09-30T08:25:13;12.10;;;7.45;;
48550;SDS011;34397;51.176;6.738;2023-09-30T08:27:45;15.90;;;7.70;;
48550;SDS011;34397;51.176;6.738;2023-09-30T08:30:21;11.27;;;6.72;;
48550;SDS011;34397;51.176;6.738;2023-09-30T08:32:52;16.10;;;7.35;;
48550;SDS011;34397;51.176;6.738;2023-09-30T08:35:24;13.63;;;7.57;;
48550;SDS011;34397;51.176;6.738;2023-09-30T08:37:56;15.02;;;7.82;;
48550;SDS011;34397;51.176;6.738;2023-09-30T08:40:29;11.57;;;7.22;;
48550;SDS011;34397;51.176;6.738;2023-09-30T08:43:01;15.38;;;7.90;;
48550;SDS011;34397;51.176;6.738;2023-09-30T08:45:37;13.73;;;8.05;;
48550;SDS011;34397;51.176;6.738;2023-09-30T08:48:12;14.80;;;7.60;;
48550;SDS011;34397;51.176;6.738;2023-09-30T08:50:45;15.73;;;7.60;;
48550;SDS011;34397;51.176;6.738;2023-09-30T08:53:18;17.35;;;8.02;;
48550;SDS011;34397;51.176;6.738;2023-09-30T08:55:52;13.35;;;6.63;;
48550;SDS011;34397;51.176;6.738;2023-09-30T08:58:26;13.75;;;7.40;;
48550;SDS011;34397;51.176;6.738;2023-09-30T09:01:00;12.45;;;7.93;;
48550;SDS011;34397;51.176;6.738;2023-09-30T09:03:32;11.55;;;7.50;;
48550;SDS011;34397;51.176;6.738;2023-09-30T09:06:06;12.90;;;7.03;;
48550;SDS011;34397;51.176;6.738;2023-09-30T09:08:38;13.02;;;6.93;;
48550;SDS011;34397;51.176;6.738;2023-09-30T09:11:11;10.57;;;5.88;;
48550;SDS011;34397;51.176;6.738;2023-09-30T09:13:47;11.32;;;6.50;;
48550;SDS011;34397;51.176;6.738;2023-09-30T09:16:27;11.38;;;6.53;;
48550;SDS011;34397;51.176;6.738;2023-09-30T09:19:01;10.75;;;6.20;;
48550;SDS011;34397;51.176;6.738;2023-09-30T09:21:55;11.13;;;5.75;;
48550;SDS011;34397;51.176;6.738;2023-09-30T09:24:28;12.15;;;6.20;;
48550;SDS011;34397;51.176;6.738;2023-09-30T09:27:05;10.38;;;6.50;;
48550;SDS011;34397;51.176;6.738;2023-09-30T09:29:38;13.68;;;6.78;;
48550;SDS011;34397;51.176;6.738;2023-09-30T09:32:14;9.48;;;6.43;;
48550;SDS011;34397;51.176;6.738;2023-09-30T09:35:00;10.00;;;6.13;;
48550;SDS011;34397;51.176;6.738;2023-09-30T09:37:33;14.25;;;6.68;;
48550;SDS011;34397;51.176;6.738;2023-09-30T09:40:05;13.10;;;6.70;;
48550;SDS011;34397;51.176;6.738;2023-09-30T09:42:38;10.40;;;5.32;;
48550;SDS011;34397;51.176;6.738;2023-09-30T09:45:11;10.07;;;5.43;;
48550;SDS011;34397;51.176;6.738;2023-09-30T09:47:44;11.98;;;5.70;;
48550;SDS011;34397;51.176;6.738;2023-09-30T09:52:48;9.75;;;5.15;;
48550;SDS011;34397;51.176;6.738;2023-09-30T09:55:22;7.72;;;4.82;;
48550;SDS011;34397;51.176;6.738;2023-09-30T09:57:56;13.93;;;5.65;;
48550;SDS011;34397;51.176;6.738;2023-09-30T10:00:30;9.35;;;5.32;;
48550;SDS011;34397;51.176;6.738;2023-09-30T10:03:05;7.82;;;4.60;;
48550;SDS011;34397;51.176;6.738;2023-09-30T10:05:38;8.60;;;4.32;;
48550;SDS011;34397;51.176;6.738;2023-09-30T10:08:11;8.55;;;4.85;;
48550;SDS011;34397;51.176;6.738;2023-09-30T10:10:47;9.00;;;4.57;;
48550;SDS011;34397;51.176;6.738;2023-09-30T10:19:22;9.77;;;4.50;;
48550;SDS011;34397;51.176;6.738;2023-09-30T10:24:55;6.32;;;3.33;;
48550;SDS011;34397;51.176;6.738;2023-09-30T10:27:32;8.00;;;3.75;;
48550;SDS011;34397;51.176;6.738;2023-09-30T10:30:14;7.28;;;3.80;;
48550;SDS011;34397;51.176;6.738;2023-09-30T10:35:43;6.25;;;2.92;;
48550;SDS011;34397;51.176;6.738;2023-09-30T10:41:48;6.78;;;3.50;;
48550;SDS011;34397;51.176;6.738;2023-09-30T10:44:33;6.60;;;3.38;;
48550;SDS011;34397;51.176;6.738;2023-09-30T10:53:24;6.00;;;3.00;;
48550;SDS011;34397;51.176;6.738;2023-09-30T10:55:57;7.18;;;3.40;;
48550;SDS011;34397;51.176;6.738;2023-09-30T10:58:40;6.10;;;3.65;;
48550;SDS011;34397;51.176;6.738;2023-09-30T11:01:18;4.53;;;2.78;;
48550;SDS011;34397;51.176;6.738;2023-09-30T11:03:59;8.25;;;3.03;;
48550;SDS011;34397;51.176;6.738;2023-09-30T11:06:39;9.75;;;2.72;;
48550;SDS011;34397;51.176;6.738;2023-09-30T11:09:14;6.00;;;2.90;;
48550;SDS011;34397;51.176;6.738;2023-09-30T11:11:48;7.30;;;3.00;;
48550;SDS011;34397;51.176;6.738;2023-09-30T11:14:21;6.25;;;2.75;;
48550;SDS011;34397;51.176;6.738;2023-09-30T11:16:56;5.78;;;2.38;;
48550;SDS011;34397;51.176;6.738;2023-09-30T11:19:34;7.15;;;2.20;;
48550;SDS011;34397;51.176;6.738;2023-09-30T11:22:08;6.15;;;2.33;;
48550;SDS011;34397;51.176;6.738;2023-09-30T11:24:40;5.10;;;2.10;;
48550;SDS011;34397;51.176;6.738;2023-09-30T11:27:12;7.20;;;2.78;;
48550;SDS011;34397;51.176;6.738;2023-09-30T11:29:48;4.82;;;2.30;;
48550;SDS011;34397;51.176;6.738;2023-09-30T11:32:23;5.85;;;2.25;;
48550;SDS011;34397;51.176;6.738;2023-09-30T11:34:57;5.10;;;2.33;;
48550;SDS011;34397;51.176;6.738;2023-09-30T11:37:33;6.60;;;2.60;;
48550;SDS011;34397;51.176;6.738;2023-09-30T11:40:09;5.70;;;2.30;;
48550;SDS011;34397;51.176;6.738;2023-09-30T11:45:42;6.05;;;2.47;;
48550;SDS011;34397;51.176;6.738;2023-09-30T11:48:17;5.05;;;2.65;;
48550;SDS011;34397;51.176;6.738;2023-09-30T11:50:50;7.68;;;2.85;;
48550;SDS011;34397;51.176;6.738;2023-09-30T11:53:26;6.80;;;2.78;;
48550;SDS011;34397;51.176;6.738;2023-09-30T11:56:00;7.10;;;2.85;;
48550;SDS011;34397;51.176;6.738;2023-09-30T11:58:33;6.57;;;2.40;;
48550;SDS011;34397;51.176;6.738;2023-09-30T12:01:05;4.22;;;2.20;;
48550;SDS011;34397;51.176;6.738;2023-09-30T12:03:37;6.45;;;2.55;;
48550;SDS011;34397;51.176;6.738;2023-09-30T12:06:10;3.92;;;1.98;;
48550;SDS011;34397;51.176;6.738;2023-09-30T12:08:45;3.97;;;1.90;;
48550;SDS011;34397;51.176;6.738;2023-09-30T12:11:17;4.00;;;2.13;;
48550;SDS011;34397;51.176;6.738;2023-09-30T12:13:49;4.80;;;2.17;;
48550;SDS011;34397;51.176;6.738;2023-09-30T12:16:21;5.95;;;2.38;;
48550;SDS011;34397;51.176;6.738;2023-09-30T12:18:54;8.43;;;2.60;;
48550;SDS011;34397;51.176;6.738;2023-09-30T12:21:25;4.45;;;2.00;;
48550;SDS011;34397;51.176;6.738;2023-09-30T12:24:00;5.75;;;2.03;;
48550;SDS011;34397;51.176;6.738;2023-09-30T12:26:33;4.18;;;1.77;;
48550;SDS011;34397;51.176;6.738;2023-09-30T12:31:36;4.53;;;1.67;;
48550;SDS011;34397;51.176;6.738;2023-09-30T12:34:08;4.70;;;1.70;;
48550;SDS011;34397;51.176;6.738;2023-09-30T12:36:40;4.70;;;2.20;;
48550;SDS011;34397;51.176;6.738;2023-09-30T12:39:14;5.55;;;1.83;;
48550;SDS011;34397;51.176;6.738;2023-09-30T12:41:46;4.32;;;1.80;;
48550;SDS011;34397;51.176;6.738;2023-09-30T12:44:18;4.03;;;1.92;;
48550;SDS011;34397;51.176;6.738;2023-09-30T12:46:50;4.18;;;1.98;;
48550;SDS011;34397;51.176;6.738;2023-09-30T12:49:22;3.70;;;1.95;;
48550;SDS011;34397;51.176;6.738;2023-09-30T12:51:54;3.15;;;1.70;;
48550;SDS011;34397;51.176;6.738;2023-09-30T12:54:27;4.50;;;1.67;;
48550;SDS011;34397;51.176;6.738;2023-09-30T12:56:59;4.93;;;1.88;;
48550;SDS011;34397;51.176;6.738;2023-09-30T12:59:31;4.05;;;2.13;;
48550;SDS011;34397;51.176;6.738;2023-09-30T13:02:04;3.75;;;1.73;;
48550;SDS011;34397;51.176;6.738;2023-09-30T13:04:36;6.22;;;2.67;;
48550;SDS011;34397;51.176;6.738;2023-09-30T13:07:12;3.50;;;2.10;;
48550;SDS011;34397;51.176;6.738;2023-09-30T13:09:47;4.28;;;2.00;;
48550;SDS011;34397;51.176;6.738;2023-09-30T13:12:18;4.07;;;2.20;;
48550;SDS011;34397;51.176;6.738;2023-09-30T13:14:50;3.88;;;2.08;;
48550;SDS011;34397;51.176;6.738;2023-09-30T13:17:26;4.75;;;2.58;;
48550;SDS011;34397;51.176;6.738;2023-09-30T13:19:58;3.83;;;2.30;;
48550;SDS011;34397;51.176;6.738;2023-09-30T13:22:29;4.78;;;1.80;;
48550;SDS011;34397;51.176;6.738;2023-09-30T13:25:03;3.28;;;1.65;;
48550;SDS011;34397;51.176;6.738;2023-09-30T13:27:36;4.85;;;1.85;;
48550;SDS011;34397;51.176;6.738;2023-09-30T13:30:11;4.57;;;1.75;;
48550;SDS011;34397;51.176;6.738;2023-09-30T13:32:43;3.67;;;1.88;;
48550;SDS011;34397;51.176;6.738;2023-09-30T13:35:16;3.70;;;1.88;;
48550;SDS011;34397;51.176;6.738;2023-09-30T13:37:48;3.25;;;1.80;;
48550;SDS011;34397;51.176;6.738;2023-09-30T13:40:22;3.35;;;1.70;;
48550;SDS011;34397;51.176;6.738;2023-09-30T13:42:53;2.75;;;1.55;;
48550;SDS011;34397;51.176;6.738;2023-09-30T13:45:27;3.75;;;1.83;;
48550;SDS011;34397;51.176;6.738;2023-09-30T13:47:59;3.90;;;1.73;;
48550;SDS011;34397;51.176;6.738;2023-09-30T13:53:03;2.83;;;1.58;;
48550;SDS011;34397;51.176;6.738;2023-09-30T13:55:38;4.88;;;1.63;;
48550;SDS011;34397;51.176;6.738;2023-09-30T13:58:10;3.85;;;1.70;;
48550;SDS011;34397;51.176;6.738;2023-09-30T14:00:46;4.00;;;2.00;;
48550;SDS011;34397;51.176;6.738;2023-09-30T14:03:18;3.35;;;1.67;;
48550;SDS011;34397;51.176;6.738;2023-09-30T14:05:50;4.85;;;1.42;;
48550;SDS011;34397;51.176;6.738;2023-09-30T14:08:23;5.30;;;1.83;;
48550;SDS011;34397;51.176;6.738;2023-09-30T14:10:56;2.22;;;1.52;;
48550;SDS011;34397;51.176;6.738;2023-09-30T14:13:28;4.95;;;1.75;;
48550;SDS011;34397;51.176;6.738;2023-09-30T14:16:00;3.38;;;1.40;;
48550;SDS011;34397;51.176;6.738;2023-09-30T14:21:06;4.05;;;1.55;;
48550;SDS011;34397;51.176;6.738;2023-09-30T14:23:38;3.47;;;1.50;;
48550;SDS011;34397;51.176;6.738;2023-09-30T14:26:11;4.03;;;1.50;;
48550;SDS011;34397;51.176;6.738;2023-09-30T14:28:43;4.05;;;1.58;;
48550;SDS011;34397;51.176;6.738;2023-09-30T14:31:15;5.65;;;1.83;;
48550;SDS011;34397;51.176;6.738;2023-09-30T14:33:47;3.17;;;1.50;;
48550;SDS011;34397;51.176;6.738;2023-09-30T14:36:19;5.18;;;1.80;;
48550;SDS011;34397;51.176;6.738;2023-09-30T14:38:52;3.22;;;1.70;;
48550;SDS011;34397;51.176;6.738;2023-09-30T14:41:26;4.05;;;1.55;;
48550;SDS011;34397;51.176;6.738;2023-09-30T14:43:57;4.15;;;1.83;;
48550;SDS011;34397;51.176;6.738;2023-09-30T14:46:29;2.47;;;1.33;;
48550;SDS011;34397;51.176;6.738;2023-09-30T14:49:01;3.55;;;1.83;;
48550;SDS011;34397;51.176;6.738;2023-09-30T14:51:33;3.53;;;1.70;;
48550;SDS011;34397;51.176;6.738;2023-09-30T14:54:05;3.72;;;1.70;;
48550;SDS011;34397;51.176;6.738;2023-09-30T14:56:39;3.70;;;1.77;;
48550;SDS011;34397;51.176;6.738;2023-09-30T14:59:11;3.47;;;1.77;;
48550;SDS011;34397;51.176;6.738;2023-09-30T15:01:43;4.45;;;1.75;;
48550;SDS011;34397;51.176;6.738;2023-09-30T15:06:46;4.03;;;1.52;;
48550;SDS011;34397;51.176;6.738;2023-09-30T15:09:18;2.92;;;1.58;;
48550;SDS011;34397;51.176;6.738;2023-09-30T15:14:23;10.93;;;2.13;;
48550;SDS011;34397;51.176;6.738;2023-09-30T15:16:55;3.03;;;1.52;;
48550;SDS011;34397;51.176;6.738;2023-09-30T15:19:27;7.78;;;2.00;;
48550;SDS011;34397;51.176;6.738;2023-09-30T15:21:59;4.50;;;1.75;;
48550;SDS011;34397;51.176;6.738;2023-09-30T15:24:30;5.88;;;1.88;;
48550;SDS011;34397;51.176;6.738;2023-09-30T15:27:04;3.13;;;1.60;;
48550;SDS011;34397;51.176;6.738;2023-09-30T15:29:35;6.07;;;1.85;;
48550;SDS011;34397;51.176;6.738;2023-09-30T15:32:07;3.75;;;1.60;;
48550;SDS011;34397;51.176;6.738;2023-09-30T15:34:40;3.50;;;1.60;;
48550;SDS011;34397;51.176;6.738;2023-09-30T15:37:12;2.17;;;1.60;;
48550;SDS011;34397;51.176;6.738;2023-09-30T15:39:44;3.22;;;1.58;;
48550;SDS011;34397;51.176;6.738;2023-09-30T15:42:18;3.47;;;1.80;;
48550;SDS011;34397;51.176;6.738;2023-09-30T15:44:50;4.22;;;1.65;;
48550;SDS011;34397;51.176;6.738;2023-09-30T15:47:26;3.75;;;1.60;;
48550;SDS011;34397;51.176;6.738;2023-09-30T15:49:57;3.47;;;1.65;;
48550;SDS011;34397;51.176;6.738;2023-09-30T15:52:29;4.68;;;1.95;;
48550;SDS011;34397;51.176;6.738;2023-09-30T15:55:01;2.78;;;1.52;;
48550;SDS011;34397;51.176;6.738;2023-09-30T15:57:35;4.22;;;2.13;;
48550;SDS011;34397;51.176;6.738;2023-09-30T16:00:09;3.05;;;1.90;;
48550;SDS011;34397;51.176;6.738;2023-09-30T16:02:42;4.25;;;1.75;;
48550;SDS011;34397;51.176;6.738;2023-09-30T16:05:14;2.92;;;1.70;;
48550;SDS011;34397;51.176;6.738;2023-09-30T16:07:46;3.67;;;1.42;;
48550;SDS011;34397;51.176;6.738;2023-09-30T16:10:19;3.30;;;1.75;;
48550;SDS011;34397;51.176;6.738;2023-09-30T16:12:52;4.57;;;1.70;;
48550;SDS011;34397;51.176;6.738;2023-09-30T16:15:24;5.47;;;1.85;;